createdAt,value
2022-11-22T00:05:59.312Z,26.03
2022-11-22T00:16:02.619Z,22.07
2022-11-22T00:26:07.227Z,26.83
2022-11-22T00:36:17.419Z,27.50
2022-11-22T00:46:19.928Z,22.37
2022-11-22T00:56:21.874Z,31.23
2022-11-22T01:06:23.909Z,28.00
2022-11-22T01:16:26.002Z,29.03
2022-11-22T01:26:29.063Z,29.23
2022-11-22T01:36:33.731Z,29.20
2022-11-22T01:46:39.892Z,25.83
2022-11-22T01:56:50.527Z,26.43
2022-11-22T02:07:07.292Z,25.10
2022-11-22T02:17:12.657Z,27.90
2022-11-22T02:27:17.608Z,31.57
2022-11-22T02:37:26.813Z,29.40
2022-11-22T02:47:28.815Z,29.63
2022-11-22T02:57:30.902Z,31.00
2022-11-22T03:07:35.216Z,31.27
2022-11-22T03:17:39.914Z,28.60
2022-11-22T03:27:44.484Z,29.27
2022-11-22T03:37:46.453Z,31.67
2022-11-22T03:47:50.626Z,30.93
2022-11-22T03:57:55.322Z,28.90
2022-11-22T04:07:57.402Z,29.23
2022-11-22T04:17:59.451Z,25.70
2022-11-22T04:28:08.536Z,28.63
2022-11-22T04:38:13.602Z,33.13
2022-11-22T04:48:16.385Z,25.93
2022-11-22T04:58:19.106Z,29.93
2022-11-22T05:08:21.336Z,29.10
2022-11-22T05:18:26.823Z,34.50
2022-11-22T05:28:32.422Z,34.40
2022-11-22T05:38:39.876Z,32.63
2022-11-22T05:48:44.129Z,34.37
2022-11-22T05:58:46.325Z,33.97
2022-11-22T06:08:48.872Z,47.47
2022-11-22T06:18:54.991Z,32.50
2022-11-22T06:29:01.581Z,30.87
2022-11-22T06:39:04.189Z,36.20
2022-11-22T06:49:11.489Z,33.50
2022-11-22T06:59:13.710Z,35.90
2022-11-22T07:09:16.756Z,37.63
2022-11-22T07:19:21.259Z,35.83
2022-11-22T07:29:26.234Z,36.60
2022-11-22T07:39:28.465Z,37.20
2022-11-22T07:49:33.058Z,35.70
2022-11-22T07:59:35.160Z,35.93
2022-11-22T08:09:37.162Z,36.60
2022-11-22T08:19:43.716Z,34.67
2022-11-22T08:29:45.771Z,37.67
2022-11-22T08:39:47.740Z,37.77
2022-11-22T08:49:49.927Z,38.87
2022-11-22T08:59:51.931Z,33.87
2022-11-22T09:09:54.044Z,33.07
2022-11-22T09:19:56.095Z,34.33
2022-11-22T09:29:58.120Z,30.40
2022-11-22T09:40:00.166Z,15.70
2022-11-22T09:50:17.550Z,25.87
2022-11-22T10:00:26.129Z,34.00
2022-11-22T10:10:36.714Z,29.97
2022-11-22T10:20:48.490Z,30.00
2022-11-22T10:31:00.574Z,36.40
2022-11-22T10:41:14.355Z,32.93
2022-11-22T10:51:27.536Z,28.57
2022-11-22T11:01:42.734Z,25.47
2022-11-22T11:11:45.838Z,17.77
2022-11-22T11:22:01.294Z,23.30
2022-11-22T11:32:17.129Z,22.33
2022-11-22T11:42:24.388Z,21.13
2022-11-22T11:52:28.874Z,21.90
2022-11-22T12:02:46.707Z,14.73
2022-11-22T12:13:02.991Z,22.70
2022-11-22T12:23:24.979Z,17.30
2022-11-22T12:33:45.022Z,20.27
2022-11-22T12:43:58.563Z,20.13
2022-11-22T12:54:08.966Z,18.03
2022-11-22T13:04:19.652Z,17.47
2022-11-22T13:14:28.254Z,15.90
2022-11-22T13:24:55.147Z,8.40
2022-11-22T13:35:08.099Z,16.67
2022-11-22T13:45:24.806Z,14.07
2022-11-22T13:55:42.340Z,14.13
2022-11-22T14:05:49.866Z,14.50
2022-11-22T14:16:05.397Z,16.50
2022-11-22T14:26:28.713Z,16.13
2022-11-22T14:36:33.200Z,16.57
2022-11-22T14:46:58.042Z,17.77
2022-11-22T14:57:04.486Z,10.00
2022-11-22T15:09:13.287Z,17.90
2022-11-22T15:59:48.693Z,29.83
2022-11-22T16:09:51.629Z,23.60
2022-11-22T16:20:12.060Z,19.37
2022-11-22T16:30:22.228Z,19.80
2022-11-22T16:40:28.237Z,21.83
2022-11-22T16:50:32.363Z,21.27
2022-11-22T17:00:37.942Z,24.10
2022-11-22T17:10:43.237Z,22.70
2022-11-22T17:20:48.383Z,25.50
2022-11-22T17:30:50.601Z,25.17
2022-11-22T17:41:03.384Z,27.43
2022-11-22T17:51:12.951Z,26.93
2022-11-22T18:01:25.273Z,15.80
2022-11-22T18:11:27.326Z,24.83
2022-11-22T18:21:30.645Z,27.50
2022-11-22T18:31:51.080Z,28.13
2022-11-22T18:41:59.254Z,22.17
2022-11-22T18:52:04.160Z,30.23
2022-11-22T19:02:08.941Z,23.07
2022-11-22T19:12:11.322Z,25.67
2022-11-22T19:22:17.900Z,22.13
2022-11-22T19:32:19.996Z,29.17
2022-11-22T19:42:27.047Z,21.37
2022-11-22T19:52:31.559Z,25.70
2022-11-22T20:02:33.798Z,27.20
2022-11-22T20:12:38.399Z,27.70
2022-11-22T20:22:41.389Z,27.93
2022-11-22T20:32:46.632Z,25.73
2022-11-22T20:42:50.868Z,25.57
2022-11-22T20:52:54.820Z,28.23
2022-11-22T21:03:01.332Z,31.27
2022-11-22T21:13:12.971Z,24.90
2022-11-22T21:23:17.926Z,22.93
2022-11-22T21:33:25.783Z,27.17
2022-11-22T21:43:29.619Z,24.73
2022-11-22T21:53:41.304Z,25.00
2022-11-22T22:03:44.365Z,23.80
2022-11-22T22:13:47.553Z,22.53
2022-11-22T22:23:51.208Z,23.33
2022-11-22T22:33:57.553Z,23.20
2022-11-22T22:44:04.907Z,17.73
2022-11-22T22:54:06.925Z,19.33
2022-11-22T23:04:12.623Z,7.73
2022-11-22T23:14:22.052Z,13.57
2022-11-22T23:24:25.675Z,24.50
2022-11-22T23:34:28.149Z,26.93
2022-11-22T23:44:33.728Z,21.93
2022-11-22T23:54:38.271Z,25.17
